sensor_id;sensor_type;location;lat;lon;timestamp;temperature;humidity
6206;DHT22;3136;48.788;9.772;2023-11-22T00:00:40;7.00;7.40
6206;DHT22;3136;48.788;9.772;2023-11-22T00:03:06;6.90;1.00
6206;DHT22;3136;48.788;9.772;2023-11-22T00:05:35;7.00;1.00
6206;DHT22;3136;48.788;9.772;2023-11-22T00:08:01;6.90;1.00
6206;DHT22;3136;48.788;9.772;2023-11-22T00:10:26;6.90;1.00
6206;DHT22;3136;48.788;9.772;2023-11-22T00:12:56;6.90;1.00
6206;DHT22;3136;48.788;9.772;2023-11-22T00:15:24;6.80;1.00
6206;DHT22;3136;48.788;9.772;2023-11-22T00:17:49;6.80;1.00
6206;DHT22;3136;48.788;9.772;2023-11-22T00:20:15;6.80;1.00
6206;DHT22;3136;48.788;9.772;2023-11-22T00:22:43;6.70;1.00
6206;DHT22;3136;48.788;9.772;2023-11-22T00:25:10;6.70;1.00
6206;DHT22;3136;48.788;9.772;2023-11-22T00:27:38;6.60;1.00
6206;DHT22;3136;48.788;9.772;2023-11-22T00:30:04;6.50;1.00
6206;DHT22;3136;48.788;9.772;2023-11-22T00:32:30;6.50;1.00
6206;DHT22;3136;48.788;9.772;2023-11-22T00:34:56;6.40;1.00
6206;DHT22;3136;48.788;9.772;2023-11-22T00:37:21;6.40;1.00
6206;DHT22;3136;48.788;9.772;2023-11-22T00:39:47;6.40;1.00
6206;DHT22;3136;48.788;9.772;2023-11-22T00:42:12;6.30;1.00
6206;DHT22;3136;48.788;9.772;2023-11-22T00:44:38;6.30;1.00
6206;DHT22;3136;48.788;9.772;2023-11-22T00:47:03;6.30;1.00
6206;DHT22;3136;48.788;9.772;2023-11-22T00:49:29;6.30;1.00
6206;DHT22;3136;48.788;9.772;2023-11-22T00:51:54;6.30;1.00
6206;DHT22;3136;48.788;9.772;2023-11-22T00:54:20;6.30;1.00
6206;DHT22;3136;48.788;9.772;2023-11-22T00:56:46;6.20;1.00
6206;DHT22;3136;48.788;9.772;2023-11-22T00:59:12;6.20;1.00
6206;DHT22;3136;48.788;9.772;2023-11-22T01:01:39;6.10;1.00
6206;DHT22;3136;48.788;9.772;2023-11-22T01:04:05;6.10;1.00
6206;DHT22;3136;48.788;9.772;2023-11-22T01:06:35;6.00;1.00
6206;DHT22;3136;48.788;9.772;2023-11-22T01:09:02;6.00;1.00
6206;DHT22;3136;48.788;9.772;2023-11-22T01:11:28;5.90;1.00
6206;DHT22;3136;48.788;9.772;2023-11-22T01:13:53;5.90;1.00
6206;DHT22;3136;48.788;9.772;2023-11-22T01:16:19;6.40;1.00
6206;DHT22;3136;48.788;9.772;2023-11-22T01:18:44;5.80;1.00
6206;DHT22;3136;48.788;9.772;2023-11-22T01:21:12;5.80;1.00
6206;DHT22;3136;48.788;9.772;2023-11-22T01:23:37;5.80;1.00
6206;DHT22;3136;48.788;9.772;2023-11-22T01:26:03;5.80;1.00
6206;DHT22;3136;48.788;9.772;2023-11-22T01:28:29;5.70;1.00
6206;DHT22;3136;48.788;9.772;2023-11-22T01:30:55;5.70;1.00
6206;DHT22;3136;48.788;9.772;2023-11-22T01:33:23;5.70;1.00
6206;DHT22;3136;48.788;9.772;2023-11-22T01:35:49;5.70;1.00
6206;DHT22;3136;48.788;9.772;2023-11-22T01:38:18;5.70;1.00
6206;DHT22;3136;48.788;9.772;2023-11-22T01:40:44;5.80;1.00
6206;DHT22;3136;48.788;9.772;2023-11-22T01:43:15;5.70;1.00
6206;DHT22;3136;48.788;9.772;2023-11-22T01:45:40;5.70;1.00
6206;DHT22;3136;48.788;9.772;2023-11-22T01:48:06;5.70;1.00
6206;DHT22;3136;48.788;9.772;2023-11-22T01:50:32;5.60;1.00
6206;DHT22;3136;48.788;9.772;2023-11-22T01:52:59;5.50;1.00
6206;DHT22;3136;48.788;9.772;2023-11-22T01:55:25;5.50;1.00
6206;DHT22;3136;48.788;9.772;2023-11-22T01:57:51;5.50;1.00
6206;DHT22;3136;48.788;9.772;2023-11-22T02:00:17;5.50;1.00
6206;DHT22;3136;48.788;9.772;2023-11-22T02:02:43;5.40;1.00
6206;DHT22;3136;48.788;9.772;2023-11-22T02:05:09;5.40;1.00
6206;DHT22;3136;48.788;9.772;2023-11-22T02:07:35;5.30;1.00
6206;DHT22;3136;48.788;9.772;2023-11-22T02:10:01;5.30;1.00
6206;DHT22;3136;48.788;9.772;2023-11-22T02:12:32;5.30;1.00
6206;DHT22;3136;48.788;9.772;2023-11-22T02:14:58;5.20;1.00
6206;DHT22;3136;48.788;9.772;2023-11-22T02:17:24;5.10;1.00
6206;DHT22;3136;48.788;9.772;2023-11-22T02:19:50;5.10;1.00
6206;DHT22;3136;48.788;9.772;2023-11-22T02:22:15;5.00;1.00
6206;DHT22;3136;48.788;9.772;2023-11-22T02:24:41;4.90;1.00
6206;DHT22;3136;48.788;9.772;2023-11-22T02:27:06;4.80;1.00
6206;DHT22;3136;48.788;9.772;2023-11-22T02:29:32;4.80;1.00
6206;DHT22;3136;48.788;9.772;2023-11-22T02:31:57;4.70;1.00
6206;DHT22;3136;48.788;9.772;2023-11-22T02:34:23;4.70;1.00
6206;DHT22;3136;48.788;9.772;2023-11-22T02:36:49;4.60;1.00
6206;DHT22;3136;48.788;9.772;2023-11-22T02:39:14;4.60;1.00
6206;DHT22;3136;48.788;9.772;2023-11-22T02:41:41;4.60;1.00
6206;DHT22;3136;48.788;9.772;2023-11-22T02:44:07;4.60;1.00
6206;DHT22;3136;48.788;9.772;2023-11-22T02:46:33;4.60;1.00
6206;DHT22;3136;48.788;9.772;2023-11-22T02:48:59;4.60;1.00
6206;DHT22;3136;48.788;9.772;2023-11-22T02:51:25;4.60;1.00
6206;DHT22;3136;48.788;9.772;2023-11-22T02:53:51;4.50;1.00
6206;DHT22;3136;48.788;9.772;2023-11-22T02:56:17;4.50;1.00
6206;DHT22;3136;48.788;9.772;2023-11-22T02:58:43;4.50;1.00
6206;DHT22;3136;48.788;9.772;2023-11-22T03:01:08;4.50;1.00
6206;DHT22;3136;48.788;9.772;2023-11-22T03:03:35;4.40;1.00
6206;DHT22;3136;48.788;9.772;2023-11-22T03:06:00;4.40;1.00
6206;DHT22;3136;48.788;9.772;2023-11-22T03:08:26;4.40;1.00
6206;DHT22;3136;48.788;9.772;2023-11-22T03:10:53;4.30;1.00
6206;DHT22;3136;48.788;9.772;2023-11-22T03:13:18;4.40;1.00
6206;DHT22;3136;48.788;9.772;2023-11-22T03:15:44;4.40;1.00
6206;DHT22;3136;48.788;9.772;2023-11-22T03:18:10;4.30;1.00
6206;DHT22;3136;48.788;9.772;2023-11-22T03:20:37;4.30;1.00
6206;DHT22;3136;48.788;9.772;2023-11-22T03:23:03;4.30;1.00
6206;DHT22;3136;48.788;9.772;2023-11-22T03:25:29;4.30;1.00
6206;DHT22;3136;48.788;9.772;2023-11-22T03:27:54;4.30;1.00
6206;DHT22;3136;48.788;9.772;2023-11-22T03:30:20;4.20;1.00
6206;DHT22;3136;48.788;9.772;2023-11-22T03:32:46;4.30;1.00
6206;DHT22;3136;48.788;9.772;2023-11-22T03:35:11;4.80;1.00
6206;DHT22;3136;48.788;9.772;2023-11-22T03:37:38;4.30;1.00
6206;DHT22;3136;48.788;9.772;2023-11-22T03:40:03;4.20;99.90
6206;DHT22;3136;48.788;9.772;2023-11-22T03:42:29;4.10;1.00
6206;DHT22;3136;48.788;9.772;2023-11-22T03:44:55;4.00;1.00
6206;DHT22;3136;48.788;9.772;2023-11-22T03:47:21;4.00;1.00
6206;DHT22;3136;48.788;9.772;2023-11-22T03:49:46;3.90;1.00
6206;DHT22;3136;48.788;9.772;2023-11-22T03:52:12;3.90;1.00
6206;DHT22;3136;48.788;9.772;2023-11-22T03:54:39;4.10;1.00
6206;DHT22;3136;48.788;9.772;2023-11-22T03:57:05;3.80;1.00
6206;DHT22;3136;48.788;9.772;2023-11-22T03:59:31;3.80;1.00
6206;DHT22;3136;48.788;9.772;2023-11-22T04:01:56;3.80;1.00
6206;DHT22;3136;48.788;9.772;2023-11-22T04:04:22;3.80;1.00
6206;DHT22;3136;48.788;9.772;2023-11-22T04:06:48;3.80;1.00
6206;DHT22;3136;48.788;9.772;2023-11-22T04:09:14;3.70;1.00
6206;DHT22;3136;48.788;9.772;2023-11-22T04:11:42;3.80;1.00
6206;DHT22;3136;48.788;9.772;2023-11-22T04:14:07;3.80;21.80
6206;DHT22;3136;48.788;9.772;2023-11-22T04:16:33;3.70;29.20
6206;DHT22;3136;48.788;9.772;2023-11-22T04:18:58;3.70;66.50
6206;DHT22;3136;48.788;9.772;2023-11-22T04:21:24;3.70;91.00
6206;DHT22;3136;48.788;9.772;2023-11-22T04:23:50;3.80;1.00
6206;DHT22;3136;48.788;9.772;2023-11-22T04:26:15;3.70;1.00
6206;DHT22;3136;48.788;9.772;2023-11-22T04:28:41;3.70;1.00
6206;DHT22;3136;48.788;9.772;2023-11-22T04:31:07;3.70;1.00
6206;DHT22;3136;48.788;9.772;2023-11-22T04:33:34;3.70;1.00
6206;DHT22;3136;48.788;9.772;2023-11-22T04:36:00;3.70;1.00
6206;DHT22;3136;48.788;9.772;2023-11-22T04:38:26;3.60;1.00
6206;DHT22;3136;48.788;9.772;2023-11-22T04:40:52;3.70;10.80
6206;DHT22;3136;48.788;9.772;2023-11-22T04:43:17;3.60;27.00
6206;DHT22;3136;48.788;9.772;2023-11-22T04:45:43;3.60;81.50
6206;DHT22;3136;48.788;9.772;2023-11-22T04:48:08;3.70;7.10
6206;DHT22;3136;48.788;9.772;2023-11-22T04:50:35;3.70;1.00
6206;DHT22;3136;48.788;9.772;2023-11-22T04:53:01;3.60;1.00
6206;DHT22;3136;48.788;9.772;2023-11-22T04:55:27;3.60;1.00
6206;DHT22;3136;48.788;9.772;2023-11-22T04:57:53;3.60;1.00
6206;DHT22;3136;48.788;9.772;2023-11-22T05:00:19;3.60;1.00
6206;DHT22;3136;48.788;9.772;2023-11-22T05:02:46;3.50;1.00
6206;DHT22;3136;48.788;9.772;2023-11-22T05:05:11;3.50;1.00
6206;DHT22;3136;48.788;9.772;2023-11-22T05:07:37;3.50;1.00
6206;DHT22;3136;48.788;9.772;2023-11-22T05:10:03;3.50;1.00
6206;DHT22;3136;48.788;9.772;2023-11-22T05:12:29;3.50;1.00
6206;DHT22;3136;48.788;9.772;2023-11-22T05:14:55;3.50;1.00
6206;DHT22;3136;48.788;9.772;2023-11-22T05:17:21;3.50;1.00
6206;DHT22;3136;48.788;9.772;2023-11-22T05:19:46;3.50;29.50
6206;DHT22;3136;48.788;9.772;2023-11-22T05:22:12;3.50;50.50
6206;DHT22;3136;48.788;9.772;2023-11-22T05:24:38;3.50;23.80
6206;DHT22;3136;48.788;9.772;2023-11-22T05:27:09;3.50;16.80
6206;DHT22;3136;48.788;9.772;2023-11-22T05:29:35;3.50;13.30
6206;DHT22;3136;48.788;9.772;2023-11-22T05:32:02;3.50;1.00
6206;DHT22;3136;48.788;9.772;2023-11-22T05:34:31;3.50;1.00
6206;DHT22;3136;48.788;9.772;2023-11-22T05:36:57;3.40;1.00
6206;DHT22;3136;48.788;9.772;2023-11-22T05:39:23;3.40;1.00
6206;DHT22;3136;48.788;9.772;2023-11-22T05:41:50;3.40;1.00
6206;DHT22;3136;48.788;9.772;2023-11-22T05:44:15;3.30;1.00
6206;DHT22;3136;48.788;9.772;2023-11-22T05:46:41;3.30;35.70
6206;DHT22;3136;48.788;9.772;2023-11-22T05:49:07;3.30;99.90
6206;DHT22;3136;48.788;9.772;2023-11-22T05:51:33;3.40;99.90
6206;DHT22;3136;48.788;9.772;2023-11-22T05:54:01;3.40;99.90
6206;DHT22;3136;48.788;9.772;2023-11-22T05:56:26;3.30;99.90
6206;DHT22;3136;48.788;9.772;2023-11-22T05:58:52;3.40;99.90
6206;DHT22;3136;48.788;9.772;2023-11-22T06:01:17;3.40;99.90
6206;DHT22;3136;48.788;9.772;2023-11-22T06:03:43;3.40;99.90
6206;DHT22;3136;48.788;9.772;2023-11-22T06:06:09;3.30;99.90
6206;DHT22;3136;48.788;9.772;2023-11-22T06:08:36;3.30;99.90
6206;DHT22;3136;48.788;9.772;2023-11-22T06:11:01;3.30;99.90
6206;DHT22;3136;48.788;9.772;2023-11-22T06:13:27;3.30;99.90
6206;DHT22;3136;48.788;9.772;2023-11-22T06:15:53;3.40;99.90
6206;DHT22;3136;48.788;9.772;2023-11-22T06:18:18;3.30;99.90
6206;DHT22;3136;48.788;9.772;2023-11-22T06:20:45;3.40;99.90
6206;DHT22;3136;48.788;9.772;2023-11-22T06:23:11;3.50;99.90
6206;DHT22;3136;48.788;9.772;2023-11-22T06:25:36;3.50;99.90
6206;DHT22;3136;48.788;9.772;2023-11-22T06:28:02;3.40;99.90
6206;DHT22;3136;48.788;9.772;2023-11-22T06:30:28;3.40;99.90
6206;DHT22;3136;48.788;9.772;2023-11-22T06:32:55;3.40;99.90
6206;DHT22;3136;48.788;9.772;2023-11-22T06:35:21;3.40;99.90
6206;DHT22;3136;48.788;9.772;2023-11-22T06:37:47;3.40;99.90
6206;DHT22;3136;48.788;9.772;2023-11-22T06:40:13;3.40;99.90
6206;DHT22;3136;48.788;9.772;2023-11-22T06:42:41;3.40;99.90
6206;DHT22;3136;48.788;9.772;2023-11-22T06:45:08;3.40;99.90
6206;DHT22;3136;48.788;9.772;2023-11-22T06:47:41;3.40;99.90
6206;DHT22;3136;48.788;9.772;2023-11-22T06:50:07;3.40;99.90
6206;DHT22;3136;48.788;9.772;2023-11-22T06:52:39;3.30;99.90
6206;DHT22;3136;48.788;9.772;2023-11-22T06:55:05;3.30;99.90
6206;DHT22;3136;48.788;9.772;2023-11-22T06:57:36;3.30;99.90
6206;DHT22;3136;48.788;9.772;2023-11-22T07:00:04;3.30;99.90
6206;DHT22;3136;48.788;9.772;2023-11-22T07:02:35;3.30;99.90
6206;DHT22;3136;48.788;9.772;2023-11-22T07:05:01;3.30;99.90
6206;DHT22;3136;48.788;9.772;2023-11-22T07:07:28;3.30;99.90
6206;DHT22;3136;48.788;9.772;2023-11-22T07:09:55;3.30;99.90
6206;DHT22;3136;48.788;9.772;2023-11-22T07:12:24;3.30;99.90
6206;DHT22;3136;48.788;9.772;2023-11-22T07:14:50;3.30;99.90
6206;DHT22;3136;48.788;9.772;2023-11-22T07:17:16;3.30;99.90
6206;DHT22;3136;48.788;9.772;2023-11-22T07:19:43;3.30;99.90
6206;DHT22;3136;48.788;9.772;2023-11-22T07:22:13;3.30;99.90
6206;DHT22;3136;48.788;9.772;2023-11-22T07:24:48;3.30;99.90
6206;DHT22;3136;48.788;9.772;2023-11-22T07:27:18;3.30;99.90
6206;DHT22;3136;48.788;9.772;2023-11-22T07:29:45;3.30;99.90
6206;DHT22;3136;48.788;9.772;2023-11-22T07:32:11;3.30;99.90
6206;DHT22;3136;48.788;9.772;2023-11-22T07:34:38;3.30;99.90
6206;DHT22;3136;48.788;9.772;2023-11-22T07:37:04;3.40;99.90
6206;DHT22;3136;48.788;9.772;2023-11-22T07:39:32;3.40;99.90
6206;DHT22;3136;48.788;9.772;2023-11-22T07:41:57;3.40;99.90
6206;DHT22;3136;48.788;9.772;2023-11-22T07:44:23;3.40;99.90
6206;DHT22;3136;48.788;9.772;2023-11-22T07:46:52;3.40;17.90
6206;DHT22;3136;48.788;9.772;2023-11-22T07:49:19;3.30;1.00
6206;DHT22;3136;48.788;9.772;2023-11-22T07:51:45;3.20;99.90
6206;DHT22;3136;48.788;9.772;2023-11-22T07:54:11;2.00;99.90
6206;DHT22;3136;48.788;9.772;2023-11-22T07:56:43;3.20;99.90
6206;DHT22;3136;48.788;9.772;2023-11-22T07:59:10;3.20;99.90
6206;DHT22;3136;48.788;9.772;2023-11-22T08:01:38;3.30;99.90
6206;DHT22;3136;48.788;9.772;2023-11-22T08:04:05;3.30;1.00
6206;DHT22;3136;48.788;9.772;2023-11-22T08:06:31;3.30;1.00
6206;DHT22;3136;48.788;9.772;2023-11-22T08:08:57;3.30;1.00
6206;DHT22;3136;48.788;9.772;2023-11-22T08:11:29;3.30;99.90
6206;DHT22;3136;48.788;9.772;2023-11-22T08:13:55;3.30;99.90
6206;DHT22;3136;48.788;9.772;2023-11-22T08:16:23;3.40;1.00
6206;DHT22;3136;48.788;9.772;2023-11-22T08:18:49;3.30;48.00
6206;DHT22;3136;48.788;9.772;2023-11-22T08:21:14;3.20;1.00
6206;DHT22;3136;48.788;9.772;2023-11-22T08:23:40;3.20;1.00
6206;DHT22;3136;48.788;9.772;2023-11-22T08:26:06;3.10;1.00
6206;DHT22;3136;48.788;9.772;2023-11-22T08:28:32;3.10;99.90
6206;DHT22;3136;48.788;9.772;2023-11-22T08:30:57;3.00;99.90
6206;DHT22;3136;48.788;9.772;2023-11-22T08:33:23;3.00;1.00
6206;DHT22;3136;48.788;9.772;2023-11-22T08:35:48;3.00;1.00
6206;DHT22;3136;48.788;9.772;2023-11-22T08:38:17;3.00;1.00
6206;DHT22;3136;48.788;9.772;2023-11-22T08:40:44;2.90;1.00
6206;DHT22;3136;48.788;9.772;2023-11-22T08:43:10;3.00;1.00
6206;DHT22;3136;48.788;9.772;2023-11-22T08:45:35;2.90;1.00
6206;DHT22;3136;48.788;9.772;2023-11-22T08:48:01;2.90;1.00
6206;DHT22;3136;48.788;9.772;2023-11-22T08:50:27;3.00;1.00
6206;DHT22;3136;48.788;9.772;2023-11-22T08:52:52;2.90;1.00
6206;DHT22;3136;48.788;9.772;2023-11-22T08:55:21;2.90;1.00
6206;DHT22;3136;48.788;9.772;2023-11-22T08:57:48;2.90;99.90
6206;DHT22;3136;48.788;9.772;2023-11-22T09:00:16;2.90;99.90
6206;DHT22;3136;48.788;9.772;2023-11-22T09:02:50;2.90;1.00
6206;DHT22;3136;48.788;9.772;2023-11-22T09:05:16;2.90;1.00
6206;DHT22;3136;48.788;9.772;2023-11-22T09:07:45;2.90;1.00
6206;DHT22;3136;48.788;9.772;2023-11-22T09:10:12;2.80;1.00
6206;DHT22;3136;48.788;9.772;2023-11-22T09:12:42;2.80;99.90
6206;DHT22;3136;48.788;9.772;2023-11-22T09:15:12;4.00;1.00
6206;DHT22;3136;48.788;9.772;2023-11-22T09:17:42;2.90;1.00
6206;DHT22;3136;48.788;9.772;2023-11-22T09:20:17;2.80;1.00
6206;DHT22;3136;48.788;9.772;2023-11-22T09:22:47;2.90;1.00
6206;DHT22;3136;48.788;9.772;2023-11-22T09:25:23;2.90;99.90
6206;DHT22;3136;48.788;9.772;2023-11-22T09:27:51;2.90;1.00
6206;DHT22;3136;48.788;9.772;2023-11-22T09:30:28;2.90;99.90
6206;DHT22;3136;48.788;9.772;2023-11-22T09:33:09;2.90;99.90
6206;DHT22;3136;48.788;9.772;2023-11-22T09:35:36;2.90;1.00
6206;DHT22;3136;48.788;9.772;2023-11-22T09:38:03;2.90;99.90
6206;DHT22;3136;48.788;9.772;2023-11-22T09:40:29;4.90;99.90
6206;DHT22;3136;48.788;9.772;2023-11-22T09:42:58;3.00;1.00
6206;DHT22;3136;48.788;9.772;2023-11-22T09:45:23;3.10;1.00
6206;DHT22;3136;48.788;9.772;2023-11-22T09:47:51;3.10;99.90
6206;DHT22;3136;48.788;9.772;2023-11-22T09:50:39;3.10;1.00
6206;DHT22;3136;48.788;9.772;2023-11-22T09:53:12;3.10;1.00
6206;DHT22;3136;48.788;9.772;2023-11-22T09:55:41;3.10;1.00
6206;DHT22;3136;48.788;9.772;2023-11-22T09:58:12;3.20;1.00
6206;DHT22;3136;48.788;9.772;2023-11-22T10:00:39;3.20;1.00
6206;DHT22;3136;48.788;9.772;2023-11-22T10:03:06;3.20;99.90
6206;DHT22;3136;48.788;9.772;2023-11-22T10:05:32;3.30;99.90
6206;DHT22;3136;48.788;9.772;2023-11-22T10:07:58;3.30;1.00
6206;DHT22;3136;48.788;9.772;2023-11-22T10:10:25;3.40;99.90
6206;DHT22;3136;48.788;9.772;2023-11-22T10:12:54;3.40;1.00
6206;DHT22;3136;48.788;9.772;2023-11-22T10:15:21;3.40;1.00
6206;DHT22;3136;48.788;9.772;2023-11-22T10:17:54;3.30;99.90
6206;DHT22;3136;48.788;9.772;2023-11-22T10:20:25;3.30;1.00
6206;DHT22;3136;48.788;9.772;2023-11-22T10:23:00;3.40;1.00
6206;DHT22;3136;48.788;9.772;2023-11-22T10:25:25;3.40;99.90
6206;DHT22;3136;48.788;9.772;2023-11-22T10:27:51;3.50;1.00
6206;DHT22;3136;48.788;9.772;2023-11-22T10:30:17;3.40;99.90
6206;DHT22;3136;48.788;9.772;2023-11-22T10:32:44;3.40;99.90
6206;DHT22;3136;48.788;9.772;2023-11-22T10:35:11;3.40;66.20
6206;DHT22;3136;48.788;9.772;2023-11-22T10:37:41;3.40;1.00
6206;DHT22;3136;48.788;9.772;2023-11-22T10:40:07;3.50;1.00
6206;DHT22;3136;48.788;9.772;2023-11-22T10:42:37;3.50;99.90
6206;DHT22;3136;48.788;9.772;2023-11-22T10:45:04;3.50;99.90
6206;DHT22;3136;48.788;9.772;2023-11-22T10:47:37;3.50;1.00
6206;DHT22;3136;48.788;9.772;2023-11-22T10:50:08;3.50;99.90
6206;DHT22;3136;48.788;9.772;2023-11-22T10:52:36;3.40;99.90
6206;DHT22;3136;48.788;9.772;2023-11-22T10:55:04;3.50;81.10
6206;DHT22;3136;48.788;9.772;2023-11-22T10:57:39;3.50;1.00
6206;DHT22;3136;48.788;9.772;2023-11-22T11:00:05;3.50;99.90
6206;DHT22;3136;48.788;9.772;2023-11-22T11:02:38;3.50;99.90
6206;DHT22;3136;48.788;9.772;2023-11-22T11:05:16;3.40;99.90
6206;DHT22;3136;48.788;9.772;2023-11-22T11:07:48;3.40;99.90
6206;DHT22;3136;48.788;9.772;2023-11-22T11:10:18;3.40;99.90
6206;DHT22;3136;48.788;9.772;2023-11-22T11:12:45;3.40;1.00
6206;DHT22;3136;48.788;9.772;2023-11-22T11:15:11;3.40;99.90
6206;DHT22;3136;48.788;9.772;2023-11-22T11:17:37;3.40;1.00
6206;DHT22;3136;48.788;9.772;2023-11-22T11:20:05;3.40;1.00
6206;DHT22;3136;48.788;9.772;2023-11-22T11:22:32;3.50;1.00
6206;DHT22;3136;48.788;9.772;2023-11-22T11:25:05;3.50;1.00
6206;DHT22;3136;48.788;9.772;2023-11-22T11:27:35;3.60;99.90
6206;DHT22;3136;48.788;9.772;2023-11-22T11:32:51;3.60;1.00
6206;DHT22;3136;48.788;9.772;2023-11-22T11:35:17;3.60;1.00
6206;DHT22;3136;48.788;9.772;2023-11-22T11:37:46;3.60;99.90
6206;DHT22;3136;48.788;9.772;2023-11-22T11:40:31;3.60;2.80
6206;DHT22;3136;48.788;9.772;2023-11-22T11:42:59;3.60;1.00
6206;DHT22;3136;48.788;9.772;2023-11-22T11:45:25;3.60;1.00
6206;DHT22;3136;48.788;9.772;2023-11-22T11:47:52;3.70;1.00
6206;DHT22;3136;48.788;9.772;2023-11-22T11:50:17;3.70;99.90
6206;DHT22;3136;48.788;9.772;2023-11-22T11:52:43;3.70;99.90
6206;DHT22;3136;48.788;9.772;2023-11-22T11:55:08;3.80;1.00
6206;DHT22;3136;48.788;9.772;2023-11-22T11:57:34;3.70;1.00
6206;DHT22;3136;48.788;9.772;2023-11-22T12:00:01;3.70;1.00
6206;DHT22;3136;48.788;9.772;2023-11-22T12:02:29;4.50;99.90
6206;DHT22;3136;48.788;9.772;2023-11-22T12:04:55;3.70;1.00
6206;DHT22;3136;48.788;9.772;2023-11-22T12:07:20;3.70;99.90
6206;DHT22;3136;48.788;9.772;2023-11-22T12:09:46;3.80;99.90
6206;DHT22;3136;48.788;9.772;2023-11-22T12:12:13;3.70;1.00
6206;DHT22;3136;48.788;9.772;2023-11-22T12:14:39;3.80;1.00
6206;DHT22;3136;48.788;9.772;2023-11-22T12:17:05;3.80;28.20
6206;DHT22;3136;48.788;9.772;2023-11-22T12:19:33;3.80;99.90
6206;DHT22;3136;48.788;9.772;2023-11-22T12:21:59;3.80;99.90
6206;DHT22;3136;48.788;9.772;2023-11-22T12:24:25;3.80;1.00
6206;DHT22;3136;48.788;9.772;2023-11-22T12:26:51;3.80;46.80
6206;DHT22;3136;48.788;9.772;2023-11-22T12:29:17;3.80;41.20
6206;DHT22;3136;48.788;9.772;2023-11-22T12:31:50;3.80;1.00
6206;DHT22;3136;48.788;9.772;2023-11-22T12:34:18;3.80;1.00
6206;DHT22;3136;48.788;9.772;2023-11-22T12:36:45;3.80;1.00
6206;DHT22;3136;48.788;9.772;2023-11-22T12:39:12;3.80;99.90
6206;DHT22;3136;48.788;9.772;2023-11-22T12:41:52;3.80;88.00
6206;DHT22;3136;48.788;9.772;2023-11-22T12:44:19;3.70;1.00
6206;DHT22;3136;48.788;9.772;2023-11-22T12:46:48;3.70;99.90
6206;DHT22;3136;48.788;9.772;2023-11-22T12:49:43;3.70;99.90
6206;DHT22;3136;48.788;9.772;2023-11-22T12:52:11;3.70;99.90
6206;DHT22;3136;48.788;9.772;2023-11-22T12:54:37;3.70;99.90
6206;DHT22;3136;48.788;9.772;2023-11-22T12:57:09;3.70;99.90
6206;DHT22;3136;48.788;9.772;2023-11-22T12:59:35;3.70;99.90
6206;DHT22;3136;48.788;9.772;2023-11-22T13:02:01;3.70;1.00
6206;DHT22;3136;48.788;9.772;2023-11-22T13:04:28;3.60;1.00
6206;DHT22;3136;48.788;9.772;2023-11-22T13:06:55;3.60;24.80
6206;DHT22;3136;48.788;9.772;2023-11-22T13:09:20;3.60;1.00
6206;DHT22;3136;48.788;9.772;2023-11-22T13:11:46;3.60;1.00
6206;DHT22;3136;48.788;9.772;2023-11-22T13:14:12;3.60;99.90
6206;DHT22;3136;48.788;9.772;2023-11-22T13:16:41;3.60;99.90
6206;DHT22;3136;48.788;9.772;2023-11-22T13:19:08;3.60;1.00
6206;DHT22;3136;48.788;9.772;2023-11-22T13:21:34;3.60;1.00
6206;DHT22;3136;48.788;9.772;2023-11-22T13:24:00;3.60;1.00
6206;DHT22;3136;48.788;9.772;2023-11-22T13:26:26;3.50;1.00
6206;DHT22;3136;48.788;9.772;2023-11-22T13:28:52;3.50;1.00
6206;DHT22;3136;48.788;9.772;2023-11-22T13:31:19;3.40;1.00
6206;DHT22;3136;48.788;9.772;2023-11-22T13:33:47;3.40;99.90
6206;DHT22;3136;48.788;9.772;2023-11-22T13:36:12;3.40;99.90
6206;DHT22;3136;48.788;9.772;2023-11-22T13:38:39;3.40;43.30
6206;DHT22;3136;48.788;9.772;2023-11-22T13:41:05;3.40;1.00
6206;DHT22;3136;48.788;9.772;2023-11-22T13:43:31;3.30;74.80
6206;DHT22;3136;48.788;9.772;2023-11-22T13:45:58;3.40;99.90
6206;DHT22;3136;48.788;9.772;2023-11-22T13:48:24;3.30;1.00
6206;DHT22;3136;48.788;9.772;2023-11-22T13:50:50;3.30;1.00
6206;DHT22;3136;48.788;9.772;2023-11-22T13:53:16;3.30;1.00
6206;DHT22;3136;48.788;9.772;2023-11-22T13:55:45;3.20;1.00
6206;DHT22;3136;48.788;9.772;2023-11-22T13:58:10;3.20;1.00
6206;DHT22;3136;48.788;9.772;2023-11-22T14:00:36;3.20;1.00
6206;DHT22;3136;48.788;9.772;2023-11-22T14:03:04;3.20;1.00
6206;DHT22;3136;48.788;9.772;2023-11-22T14:05:35;3.20;1.00
6206;DHT22;3136;48.788;9.772;2023-11-22T14:08:03;3.20;1.00
6206;DHT22;3136;48.788;9.772;2023-11-22T14:10:29;3.20;1.00
6206;DHT22;3136;48.788;9.772;2023-11-22T14:12:55;3.20;3.90
6206;DHT22;3136;48.788;9.772;2023-11-22T14:15:26;3.20;49.10
6206;DHT22;3136;48.788;9.772;2023-11-22T14:17:53;3.20;99.90
6206;DHT22;3136;48.788;9.772;2023-11-22T14:20:19;3.10;99.90
6206;DHT22;3136;48.788;9.772;2023-11-22T14:22:46;3.10;99.90
6206;DHT22;3136;48.788;9.772;2023-11-22T14:25:12;3.10;99.90
6206;DHT22;3136;48.788;9.772;2023-11-22T14:27:42;3.10;1.00
6206;DHT22;3136;48.788;9.772;2023-11-22T14:30:09;3.10;1.00
6206;DHT22;3136;48.788;9.772;2023-11-22T14:32:37;3.10;99.90
6206;DHT22;3136;48.788;9.772;2023-11-22T14:35:06;3.10;1.00
6206;DHT22;3136;48.788;9.772;2023-11-22T14:37:33;3.10;99.90
6206;DHT22;3136;48.788;9.772;2023-11-22T14:39:59;3.10;99.90
6206;DHT22;3136;48.788;9.772;2023-11-22T14:42:25;3.10;99.90
6206;DHT22;3136;48.788;9.772;2023-11-22T14:44:51;3.10;66.90
6206;DHT22;3136;48.788;9.772;2023-11-22T14:47:17;3.10;99.90
6206;DHT22;3136;48.788;9.772;2023-11-22T14:49:51;3.10;99.90
6206;DHT22;3136;48.788;9.772;2023-11-22T14:52:17;3.00;99.90
6206;DHT22;3136;48.788;9.772;2023-11-22T14:54:44;3.00;99.90
6206;DHT22;3136;48.788;9.772;2023-11-22T14:57:10;2.90;1.00
6206;DHT22;3136;48.788;9.772;2023-11-22T14:59:38;2.90;99.90
6206;DHT22;3136;48.788;9.772;2023-11-22T15:02:04;3.00;1.00
6206;DHT22;3136;48.788;9.772;2023-11-22T15:04:32;2.90;1.00
6206;DHT22;3136;48.788;9.772;2023-11-22T15:07:00;2.90;1.00
6206;DHT22;3136;48.788;9.772;2023-11-22T15:09:26;2.90;75.10
6206;DHT22;3136;48.788;9.772;2023-11-22T15:11:51;2.90;99.90
6206;DHT22;3136;48.788;9.772;2023-11-22T15:14:17;2.80;99.90
6206;DHT22;3136;48.788;9.772;2023-11-22T15:16:42;2.80;99.90
6206;DHT22;3136;48.788;9.772;2023-11-22T15:19:08;2.80;99.90
6206;DHT22;3136;48.788;9.772;2023-11-22T15:21:35;2.70;1.00
6206;DHT22;3136;48.788;9.772;2023-11-22T15:24:01;2.70;1.00
6206;DHT22;3136;48.788;9.772;2023-11-22T15:26:26;2.70;1.00
6206;DHT22;3136;48.788;9.772;2023-11-22T15:28:52;2.70;1.00
6206;DHT22;3136;48.788;9.772;2023-11-22T15:31:18;2.70;99.90
6206;DHT22;3136;48.788;9.772;2023-11-22T15:33:44;2.70;99.90
6206;DHT22;3136;48.788;9.772;2023-11-22T15:36:11;2.70;1.00
6206;DHT22;3136;48.788;9.772;2023-11-22T15:38:36;2.70;1.00
6206;DHT22;3136;48.788;9.772;2023-11-22T15:41:02;2.70;1.00
6206;DHT22;3136;48.788;9.772;2023-11-22T15:43:28;2.60;1.00
6206;DHT22;3136;48.788;9.772;2023-11-22T15:45:55;2.70;99.90
6206;DHT22;3136;48.788;9.772;2023-11-22T15:48:20;2.70;99.90
6206;DHT22;3136;48.788;9.772;2023-11-22T15:50:46;2.70;1.00
6206;DHT22;3136;48.788;9.772;2023-11-22T15:53:12;2.70;1.00
6206;DHT22;3136;48.788;9.772;2023-11-22T15:55:41;2.70;1.00
6206;DHT22;3136;48.788;9.772;2023-11-22T15:58:06;2.70;99.90
6206;DHT22;3136;48.788;9.772;2023-11-22T16:00:32;2.70;99.90
6206;DHT22;3136;48.788;9.772;2023-11-22T16:02:58;2.60;99.90
6206;DHT22;3136;48.788;9.772;2023-11-22T16:05:24;2.60;99.90
6206;DHT22;3136;48.788;9.772;2023-11-22T16:07:49;2.50;1.00
6206;DHT22;3136;48.788;9.772;2023-11-22T16:10:16;2.50;1.00
6206;DHT22;3136;48.788;9.772;2023-11-22T16:12:43;2.50;1.00
6206;DHT22;3136;48.788;9.772;2023-11-22T16:15:09;2.50;1.00
6206;DHT22;3136;48.788;9.772;2023-11-22T16:17:37;2.50;39.80
6206;DHT22;3136;48.788;9.772;2023-11-22T16:20:03;2.50;99.90
6206;DHT22;3136;48.788;9.772;2023-11-22T16:22:40;2.50;1.00
6206;DHT22;3136;48.788;9.772;2023-11-22T16:25:10;2.50;99.90
6206;DHT22;3136;48.788;9.772;2023-11-22T16:27:36;3.90;1.00